createdAt,value
2022-07-31T00:02:11.874Z,23.00
2022-07-31T00:04:44.541Z,22.17
2022-07-31T00:07:14.889Z,25.90
2022-07-31T00:09:53.905Z,23.80
2022-07-31T00:12:25.525Z,17.27
2022-07-31T00:14:55.526Z,14.40
2022-07-31T00:17:25.660Z,16.33
2022-07-31T00:19:58.322Z,19.97
2022-07-31T00:22:28.637Z,24.20
2022-07-31T00:24:58.602Z,21.90
2022-07-31T00:27:28.923Z,23.63
2022-07-31T00:29:58.941Z,22.50
2022-07-31T00:32:29.268Z,21.00
2022-07-31T00:35:02.213Z,17.00
2022-07-31T00:37:32.768Z,15.43
2022-07-31T00:40:02.691Z,15.57
2022-07-31T00:42:32.667Z,15.67
2022-07-31T00:45:02.878Z,15.57
2022-07-31T00:47:32.854Z,16.10
2022-07-31T00:50:07.539Z,14.43
2022-07-31T00:52:37.618Z,12.13
2022-07-31T00:55:09.069Z,12.60
2022-07-31T00:57:39.776Z,12.87
2022-07-31T01:00:13.680Z,11.13
2022-07-31T01:02:46.594Z,12.80
2022-07-31T01:05:19.461Z,13.33
2022-07-31T01:07:49.787Z,15.20
2022-07-31T01:10:43.883Z,12.80
2022-07-31T01:13:25.179Z,13.97
2022-07-31T01:15:59.460Z,13.13
2022-07-31T01:18:35.712Z,12.47
2022-07-31T01:21:14.239Z,12.60
2022-07-31T01:24:12.010Z,14.30
2022-07-31T01:27:49.711Z,13.50
2022-07-31T01:30:30.741Z,12.40
2022-07-31T01:33:11.298Z,12.87
2022-07-31T01:35:48.697Z,14.50
2022-07-31T01:38:25.837Z,13.60
2022-07-31T01:41:04.622Z,13.00
2022-07-31T01:43:40.676Z,12.60
2022-07-31T01:46:19.700Z,12.80
2022-07-31T01:48:52.636Z,12.90
2022-07-31T01:51:25.623Z,12.37
2022-07-31T01:53:58.584Z,12.47
2022-07-31T01:56:31.735Z,13.57
2022-07-31T01:59:03.682Z,11.90
2022-07-31T02:02:04.863Z,12.60
2022-07-31T02:04:37.730Z,11.63
2022-07-31T02:07:09.953Z,11.27
2022-07-31T02:09:52.267Z,11.43
2022-07-31T02:12:32.116Z,12.50
2022-07-31T02:15:05.911Z,11.93
2022-07-31T02:17:41.449Z,11.13
2022-07-31T02:20:23.557Z,11.37
2022-07-31T02:22:57.295Z,11.30
2022-07-31T02:25:28.596Z,11.53
2022-07-31T02:28:03.250Z,10.83
2022-07-31T02:30:39.288Z,10.37
2022-07-31T02:33:20.834Z,10.77
2022-07-31T02:36:24.948Z,10.90
2022-07-31T02:38:57.589Z,10.87
2022-07-31T02:41:29.086Z,12.03
2022-07-31T02:44:01.580Z,11.00
2022-07-31T02:46:34.046Z,12.30
2022-07-31T02:49:07.190Z,12.70
2022-07-31T02:51:42.904Z,12.10
2022-07-31T02:54:14.553Z,11.30
2022-07-31T02:56:46.650Z,13.07
2022-07-31T02:59:16.764Z,11.47
2022-07-31T03:02:00.093Z,11.40
2022-07-31T03:04:38.906Z,11.87
2022-07-31T03:07:08.974Z,10.73
2022-07-31T03:09:39.968Z,10.47
2022-07-31T03:12:28.333Z,10.60
2022-07-31T03:14:59.598Z,11.70
2022-07-31T03:17:40.800Z,10.30
2022-07-31T03:20:18.271Z,11.50
2022-07-31T03:22:49.414Z,12.30
2022-07-31T03:25:21.835Z,12.87
2022-07-31T03:27:56.220Z,12.13
2022-07-31T03:30:27.802Z,13.20
2022-07-31T03:33:03.427Z,12.80
2022-07-31T03:35:39.854Z,14.13
2022-07-31T03:38:41.318Z,13.63
2022-07-31T03:41:07.344Z,13.90
2022-07-31T03:43:47.112Z,15.50
2022-07-31T03:46:23.875Z,13.43
2022-07-31T03:48:54.901Z,12.33
2022-07-31T03:51:31.747Z,15.30
2022-07-31T03:54:02.205Z,12.93
2022-07-31T03:56:49.962Z,13.90
2022-07-31T03:59:23.390Z,14.40
2022-07-31T04:01:58.018Z,15.63
2022-07-31T04:04:45.429Z,12.40
2022-07-31T04:07:18.453Z,11.90
2022-07-31T04:09:48.512Z,13.20
2022-07-31T04:12:19.023Z,12.63
2022-07-31T04:14:49.271Z,12.53
2022-07-31T04:17:20.406Z,12.23
2022-07-31T04:19:50.511Z,11.87
2022-07-31T04:22:23.126Z,12.40
2022-07-31T04:24:53.350Z,10.70
2022-07-31T04:27:34.746Z,9.07
2022-07-31T04:30:18.573Z,10.00
2022-07-31T04:32:50.645Z,9.67
2022-07-31T04:35:25.113Z,10.10
2022-07-31T04:37:57.798Z,8.77
2022-07-31T04:40:29.418Z,9.07
2022-07-31T04:42:59.439Z,8.50
2022-07-31T04:45:29.575Z,8.90
2022-07-31T04:47:59.677Z,8.07
2022-07-31T04:50:29.893Z,8.93
2022-07-31T04:53:04.161Z,8.20
2022-07-31T04:55:41.065Z,8.80
2022-07-31T04:58:11.198Z,9.67
2022-07-31T05:00:41.692Z,7.57
2022-07-31T05:03:11.770Z,7.00
2022-07-31T05:05:45.378Z,6.70
2022-07-31T05:08:18.066Z,7.00
2022-07-31T05:11:02.324Z,7.00
2022-07-31T05:13:33.518Z,6.40
2022-07-31T05:16:03.536Z,7.47
2022-07-31T05:18:33.620Z,5.63
2022-07-31T05:21:51.370Z,6.67
2022-07-31T05:24:33.260Z,7.07
2022-07-31T05:27:11.758Z,6.10
2022-07-31T05:29:44.356Z,5.40
2022-07-31T05:32:14.768Z,5.43
2022-07-31T05:34:45.146Z,7.20
2022-07-31T05:37:15.213Z,5.77
2022-07-31T05:39:47.784Z,5.50
2022-07-31T05:42:36.229Z,6.13
2022-07-31T05:45:26.624Z,5.80
2022-07-31T05:47:56.717Z,5.80
2022-07-31T05:50:26.885Z,6.40
2022-07-31T05:52:56.896Z,6.70
2022-07-31T05:55:57.493Z,5.80
2022-07-31T05:58:48.356Z,6.30
2022-07-31T06:01:19.264Z,5.03
2022-07-31T06:03:52.245Z,6.60
2022-07-31T06:06:31.237Z,6.27
2022-07-31T06:09:04.420Z,5.93
2022-07-31T06:11:41.496Z,4.97
2022-07-31T06:14:12.203Z,6.80
2022-07-31T06:17:11.406Z,5.63
2022-07-31T06:19:42.307Z,5.73
2022-07-31T06:22:13.972Z,6.40
2022-07-31T06:24:43.918Z,6.27
2022-07-31T06:27:34.019Z,6.40
2022-07-31T06:30:05.914Z,5.67
2022-07-31T06:32:36.213Z,6.13
2022-07-31T06:35:07.834Z,6.07
2022-07-31T06:37:51.424Z,5.90
2022-07-31T06:40:22.509Z,5.90
2022-07-31T06:43:16.010Z,4.70
2022-07-31T06:46:16.594Z,5.83
2022-07-31T06:49:08.935Z,5.93
2022-07-31T06:51:39.652Z,5.63
2022-07-31T06:54:13.308Z,5.50
2022-07-31T06:56:43.711Z,5.80
2022-07-31T06:59:39.266Z,6.30
2022-07-31T07:02:08.730Z,5.03
2022-07-31T07:05:00.774Z,5.07
2022-07-31T07:07:31.941Z,4.97
2022-07-31T07:10:04.672Z,5.50
2022-07-31T07:13:00.724Z,5.10
2022-07-31T07:15:37.797Z,5.23
2022-07-31T07:18:09.706Z,4.83
2022-07-31T07:20:53.703Z,5.43
2022-07-31T07:23:25.341Z,5.30
2022-07-31T07:26:11.216Z,5.47
2022-07-31T07:28:41.856Z,4.87
2022-07-31T07:31:15.528Z,5.00
2022-07-31T07:33:45.666Z,5.20
2022-07-31T07:36:23.814Z,4.20
2022-07-31T07:38:59.525Z,5.00
2022-07-31T07:41:30.332Z,5.30
2022-07-31T07:44:00.484Z,5.17
2022-07-31T07:46:34.463Z,4.53
2022-07-31T07:49:07.645Z,4.77
2022-07-31T07:51:59.680Z,4.40
2022-07-31T07:54:43.291Z,4.77
2022-07-31T07:57:26.770Z,4.53
2022-07-31T08:00:13.775Z,5.43
2022-07-31T08:03:50.125Z,4.53
2022-07-31T08:05:43.818Z,5.60
2022-07-31T08:08:13.989Z,4.93
2022-07-31T08:10:50.138Z,5.10
2022-07-31T08:13:31.472Z,5.13
2022-07-31T08:16:20.795Z,5.17
2022-07-31T08:18:57.167Z,4.80
2022-07-31T08:21:28.319Z,4.20
2022-07-31T08:23:58.613Z,5.53
2022-07-31T08:26:48.788Z,5.00
2022-07-31T08:29:19.233Z,5.60
2022-07-31T08:32:00.585Z,4.37
2022-07-31T08:34:51.842Z,4.57
2022-07-31T08:38:01.603Z,4.80
2022-07-31T08:40:13.920Z,5.10
2022-07-31T08:42:44.109Z,5.30
2022-07-31T08:45:15.953Z,4.97
2022-07-31T08:47:52.050Z,5.00
2022-07-31T08:50:32.744Z,5.07
2022-07-31T08:53:06.766Z,5.13
2022-07-31T08:55:55.464Z,5.00
2022-07-31T08:58:27.687Z,4.83
2022-07-31T09:00:58.574Z,4.77
2022-07-31T09:03:28.743Z,5.10
2022-07-31T09:06:06.938Z,6.30
2022-07-31T09:08:39.284Z,5.13
2022-07-31T09:11:14.872Z,4.60
2022-07-31T09:14:30.733Z,4.50
2022-07-31T09:17:01.537Z,4.67
2022-07-31T09:19:52.397Z,4.73
2022-07-31T09:22:32.663Z,4.83
2022-07-31T09:25:16.232Z,4.37
2022-07-31T09:27:47.383Z,4.77
2022-07-31T09:30:18.833Z,4.97
2022-07-31T09:33:19.744Z,5.07
2022-07-31T09:36:16.881Z,5.10
2022-07-31T09:38:56.414Z,4.40
2022-07-31T09:42:01.979Z,4.67
2022-07-31T09:45:05.745Z,4.77
2022-07-31T09:47:37.811Z,4.10
2022-07-31T09:50:10.184Z,3.83
2022-07-31T09:52:40.222Z,3.90
2022-07-31T09:55:17.074Z,4.30
2022-07-31T09:57:57.629Z,4.07
2022-07-31T10:00:31.858Z,3.67
2022-07-31T10:03:05.403Z,4.20
2022-07-31T10:05:38.182Z,4.30
2022-07-31T10:08:09.244Z,4.03
2022-07-31T10:10:57.209Z,3.80
2022-07-31T10:13:33.592Z,3.70
2022-07-31T10:16:05.340Z,3.77
2022-07-31T10:19:11.954Z,3.90
2022-07-31T10:22:04.177Z,3.70
2022-07-31T10:24:48.205Z,4.00
2022-07-31T10:27:21.922Z,3.60
2022-07-31T10:30:02.448Z,4.27
2022-07-31T10:32:32.741Z,3.67
2022-07-31T10:35:55.704Z,4.10
2022-07-31T10:39:10.634Z,3.70
2022-07-31T10:42:06.429Z,4.00
2022-07-31T10:44:53.686Z,4.07
2022-07-31T10:48:04.409Z,3.90
2022-07-31T10:51:05.287Z,3.63
2022-07-31T10:53:59.517Z,3.90
2022-07-31T10:56:50.235Z,4.30
2022-07-31T10:59:32.544Z,4.37
2022-07-31T11:02:37.402Z,3.63
2022-07-31T11:05:28.031Z,3.90
2022-07-31T11:08:14.388Z,3.43
2022-07-31T11:10:54.751Z,3.90
2022-07-31T11:13:50.424Z,4.17
2022-07-31T11:16:52.599Z,3.97
2022-07-31T11:19:46.286Z,3.87
2022-07-31T11:22:31.771Z,3.70
2022-07-31T11:25:03.134Z,3.97
2022-07-31T11:27:33.907Z,3.90
2022-07-31T11:30:13.518Z,3.83
2022-07-31T11:32:44.241Z,3.40
2022-07-31T11:35:28.908Z,3.70
2022-07-31T11:37:59.954Z,4.20
2022-07-31T11:40:30.435Z,3.70
2022-07-31T11:43:25.299Z,3.97
2022-07-31T11:45:55.135Z,3.43
2022-07-31T11:48:28.025Z,3.73
2022-07-31T11:51:01.996Z,4.03
2022-07-31T11:53:32.694Z,3.37
2022-07-31T11:56:04.184Z,3.83
2022-07-31T11:58:34.192Z,3.63
2022-07-31T12:01:07.372Z,4.30
2022-07-31T12:03:40.006Z,4.30
2022-07-31T12:06:14.210Z,3.60
2022-07-31T12:08:44.990Z,4.50
2022-07-31T12:11:15.162Z,3.67
2022-07-31T12:13:49.550Z,3.37
2022-07-31T12:16:21.611Z,4.10
2022-07-31T12:18:55.046Z,3.40
2022-07-31T12:21:35.941Z,3.60
2022-07-31T12:24:13.710Z,3.73
2022-07-31T12:26:52.833Z,3.60
2022-07-31T12:29:33.914Z,3.90
2022-07-31T12:32:04.481Z,4.60
2022-07-31T12:34:38.326Z,4.27
2022-07-31T12:37:16.742Z,4.20
2022-07-31T12:40:00.859Z,3.73
2022-07-31T12:42:40.672Z,3.27
2022-07-31T12:45:19.947Z,3.90
2022-07-31T12:47:52.741Z,3.90
2022-07-31T12:50:23.651Z,3.60
2022-07-31T12:52:57.101Z,4.03
2022-07-31T12:55:27.148Z,3.70
2022-07-31T12:57:57.172Z,3.70
2022-07-31T13:00:30.227Z,4.03
2022-07-31T13:03:00.984Z,3.60
2022-07-31T13:05:30.971Z,3.77
2022-07-31T13:08:03.557Z,3.80
2022-07-31T13:10:33.818Z,3.57
2022-07-31T13:13:04.583Z,3.50
2022-07-31T13:15:34.525Z,3.20
2022-07-31T13:18:05.112Z,3.47
2022-07-31T13:20:35.436Z,3.30
2022-07-31T13:23:08.085Z,3.33
2022-07-31T13:25:38.171Z,3.00
2022-07-31T13:28:08.390Z,3.40
2022-07-31T13:30:38.346Z,3.57
2022-07-31T13:33:08.402Z,3.70
2022-07-31T13:35:38.558Z,3.40
2022-07-31T13:38:12.830Z,3.53
2022-07-31T13:40:55.362Z,3.50
2022-07-31T13:43:25.528Z,3.27
2022-07-31T13:45:55.463Z,3.47
2022-07-31T13:48:25.632Z,3.67
2022-07-31T13:50:55.633Z,4.00
2022-07-31T13:53:28.224Z,6.67
2022-07-31T13:55:58.791Z,3.63
2022-07-31T13:58:29.862Z,4.20
2022-07-31T14:01:04.331Z,4.03
2022-07-31T14:03:35.379Z,3.93
2022-07-31T14:06:07.144Z,3.60
2022-07-31T14:08:50.448Z,3.70
2022-07-31T14:11:20.848Z,3.97
2022-07-31T14:13:50.857Z,4.20
2022-07-31T14:16:20.826Z,4.37
2022-07-31T14:18:50.956Z,3.27
2022-07-31T14:21:20.961Z,3.43
2022-07-31T14:23:53.533Z,10.13
2022-07-31T14:26:23.598Z,4.00
2022-07-31T14:28:53.614Z,3.80
2022-07-31T14:31:23.624Z,3.10
2022-07-31T14:33:53.601Z,3.13
2022-07-31T14:36:23.570Z,3.67
2022-07-31T14:38:56.097Z,3.70
2022-07-31T14:41:26.201Z,3.67
2022-07-31T14:43:56.117Z,4.03
2022-07-31T14:46:26.104Z,3.60
2022-07-31T14:48:56.099Z,3.60
2022-07-31T14:51:26.158Z,3.60
2022-07-31T14:54:06.118Z,3.00
2022-07-31T14:56:59.557Z,3.23
2022-07-31T14:59:26.096Z,3.30
2022-07-31T15:01:56.181Z,3.30
2022-07-31T15:04:26.602Z,2.93
2022-07-31T15:07:13.162Z,3.97
2022-07-31T15:09:49.207Z,3.80
2022-07-31T15:12:19.900Z,3.67
2022-07-31T15:14:49.940Z,3.60
2022-07-31T15:17:19.962Z,3.63
2022-07-31T15:19:49.935Z,3.53
2022-07-31T15:22:20.122Z,3.00
2022-07-31T15:24:53.088Z,3.30
2022-07-31T15:27:24.945Z,4.40
2022-07-31T15:30:03.517Z,3.97
2022-07-31T15:32:40.158Z,3.30
2022-07-31T15:35:14.067Z,3.50
2022-07-31T15:37:46.947Z,3.33
2022-07-31T15:40:20.571Z,3.20
2022-07-31T15:42:50.634Z,2.90
2022-07-31T15:45:23.072Z,4.00
2022-07-31T15:47:53.076Z,3.83
2022-07-31T15:50:23.086Z,3.70
2022-07-31T15:52:54.052Z,3.20
2022-07-31T15:55:26.686Z,3.67
2022-07-31T15:57:56.668Z,3.13
2022-07-31T16:00:27.649Z,3.27
2022-07-31T16:02:57.702Z,3.40
2022-07-31T16:05:35.945Z,3.40
2022-07-31T16:08:30.537Z,3.40
2022-07-31T16:10:59.995Z,3.30
2022-07-31T16:13:31.442Z,3.50
2022-07-31T16:16:01.891Z,3.53
2022-07-31T16:18:32.185Z,3.17
2022-07-31T16:21:02.201Z,3.23
2022-07-31T16:23:32.338Z,4.17
2022-07-31T16:26:04.901Z,4.00
2022-07-31T16:28:34.958Z,3.30
2022-07-31T16:31:04.972Z,3.87
2022-07-31T16:33:34.955Z,3.97
2022-07-31T16:36:04.924Z,3.50
2022-07-31T16:38:34.937Z,4.40
2022-07-31T16:41:07.493Z,3.17
2022-07-31T16:43:50.737Z,4.00
2022-07-31T16:46:21.601Z,4.13
2022-07-31T16:48:51.653Z,6.17
2022-07-31T16:51:21.757Z,3.83
2022-07-31T16:54:13.818Z,4.10
2022-07-31T16:56:44.615Z,4.03
2022-07-31T16:59:14.694Z,3.63
2022-07-31T17:01:58.848Z,5.10
2022-07-31T17:04:31.277Z,3.57
2022-07-31T17:07:02.316Z,3.47
2022-07-31T17:09:33.593Z,3.73
2022-07-31T17:12:07.586Z,3.30
2022-07-31T17:14:38.919Z,3.00
2022-07-31T17:17:09.109Z,3.63
2022-07-31T17:19:45.350Z,3.57
2022-07-31T17:22:17.935Z,3.30
2022-07-31T17:24:51.883Z,3.20
2022-07-31T17:27:25.025Z,3.90
2022-07-31T17:29:55.446Z,4.13
2022-07-31T17:32:25.490Z,4.10
2022-07-31T17:34:55.702Z,3.83
2022-07-31T17:37:26.110Z,3.70
2022-07-31T17:39:58.021Z,2.90
2022-07-31T17:42:30.844Z,3.30
2022-07-31T17:45:02.144Z,3.40
2022-07-31T17:47:33.665Z,3.17
2022-07-31T17:50:03.662Z,3.60
2022-07-31T17:52:33.792Z,3.77
2022-07-31T17:55:03.794Z,4.30
2022-07-31T17:57:36.551Z,3.97
2022-07-31T18:00:10.028Z,3.73
2022-07-31T18:02:40.483Z,4.10
2022-07-31T18:05:12.066Z,4.20
2022-07-31T18:07:42.194Z,3.97
2022-07-31T18:10:13.925Z,3.40
2022-07-31T18:12:57.492Z,3.37
2022-07-31T18:15:34.872Z,3.20
2022-07-31T18:18:06.319Z,3.83
2022-07-31T18:20:36.898Z,3.60
2022-07-31T18:23:07.006Z,3.90
2022-07-31T18:25:40.924Z,3.57
2022-07-31T18:28:13.494Z,3.50
2022-07-31T18:30:44.113Z,3.90
2022-07-31T18:33:14.369Z,4.10
2022-07-31T18:35:44.361Z,3.57
2022-07-31T18:38:15.167Z,3.40
2022-07-31T18:40:45.207Z,3.60
2022-07-31T18:43:17.809Z,4.00
2022-07-31T18:45:47.847Z,3.73
2022-07-31T18:48:18.101Z,4.13
2022-07-31T18:50:58.697Z,3.70
2022-07-31T18:53:32.506Z,3.50
2022-07-31T18:56:02.793Z,5.20
2022-07-31T18:58:36.196Z,21.57
2022-07-31T19:01:06.504Z,5.80
2022-07-31T19:03:36.448Z,6.50
2022-07-31T19:06:07.101Z,5.17
2022-07-31T19:08:37.110Z,4.00
2022-07-31T19:11:07.539Z,3.50
2022-07-31T19:13:40.173Z,4.70
2022-07-31T19:16:10.242Z,5.90
2022-07-31T19:18:41.508Z,5.70
2022-07-31T19:21:23.047Z,7.07
2022-07-31T19:24:04.122Z,7.07
2022-07-31T19:26:34.516Z,6.50
2022-07-31T19:29:07.814Z,8.13
2022-07-31T19:31:38.175Z,6.03
2022-07-31T19:34:08.417Z,5.17
2022-07-31T19:36:38.590Z,4.40
2022-07-31T19:39:08.901Z,5.30
2022-07-31T19:41:39.007Z,4.13
2022-07-31T19:44:13.666Z,3.93
2022-07-31T19:46:43.864Z,4.47
2022-07-31T19:49:13.907Z,4.60
2022-07-31T19:51:44.461Z,4.27
2022-07-31T19:54:14.409Z,5.57
2022-07-31T19:56:44.479Z,6.03
2022-07-31T19:59:20.550Z,6.87
2022-07-31T20:01:50.685Z,4.63
2022-07-31T20:04:21.277Z,4.70
2022-07-31T20:06:52.870Z,6.10
2022-07-31T20:09:24.205Z,4.90
2022-07-31T20:11:54.287Z,4.00
2022-07-31T20:14:26.873Z,5.50
2022-07-31T20:16:56.843Z,3.97
2022-07-31T20:19:26.830Z,3.10
2022-07-31T20:21:57.587Z,3.00
2022-07-31T20:24:29.865Z,3.60
2022-07-31T20:27:00.310Z,3.07
2022-07-31T20:29:33.560Z,3.33
2022-07-31T20:32:04.251Z,3.43
2022-07-31T20:34:34.493Z,2.87
2022-07-31T20:37:06.319Z,2.30
2022-07-31T20:39:36.292Z,3.00
2022-07-31T20:42:07.385Z,2.67
2022-07-31T20:44:42.741Z,2.93
2022-07-31T20:47:12.749Z,2.93
2022-07-31T20:49:43.012Z,2.90
2022-07-31T20:52:13.021Z,3.40
2022-07-31T20:54:43.034Z,3.07
2022-07-31T20:57:13.006Z,3.60
2022-07-31T20:59:45.566Z,3.20
2022-07-31T21:02:15.573Z,3.10
2022-07-31T21:04:45.713Z,3.13
2022-07-31T21:07:15.799Z,3.30
2022-07-31T21:09:46.068Z,2.90
2022-07-31T21:12:16.134Z,3.17
2022-07-31T21:14:48.842Z,3.17
2022-07-31T21:17:18.817Z,3.63
2022-07-31T21:19:48.811Z,4.67
2022-07-31T21:22:18.850Z,4.10
2022-07-31T21:24:49.701Z,3.23
2022-07-31T21:27:21.241Z,3.43
2022-07-31T21:29:56.968Z,3.40
2022-07-31T21:32:28.070Z,3.30
2022-07-31T21:34:59.461Z,3.77
2022-07-31T21:37:39.100Z,3.20
2022-07-31T21:40:12.655Z,3.10
2022-07-31T21:42:43.826Z,3.10
2022-07-31T21:45:18.496Z,3.53
2022-07-31T21:47:53.133Z,3.70
2022-07-31T21:50:29.113Z,3.50
2022-07-31T21:52:59.672Z,3.03
2022-07-31T21:55:29.762Z,2.70
2022-07-31T21:58:00.173Z,3.50
2022-07-31T22:00:34.239Z,3.87
2022-07-31T22:03:06.694Z,3.60
2022-07-31T22:05:49.611Z,3.93
2022-07-31T22:08:20.410Z,3.23
2022-07-31T22:10:52.313Z,2.67
2022-07-31T22:13:23.021Z,3.73
2022-07-31T22:15:59.997Z,3.80
2022-07-31T22:18:36.627Z,3.10
2022-07-31T22:21:10.429Z,4.10
2022-07-31T22:23:41.659Z,3.73
2022-07-31T22:26:13.125Z,3.20
2022-07-31T22:28:44.388Z,4.20
2022-07-31T22:31:17.885Z,4.03
2022-07-31T22:33:48.337Z,3.33
2022-07-31T22:36:19.000Z,2.93
2022-07-31T22:38:52.198Z,3.27
2022-07-31T22:41:22.488Z,4.20
2022-07-31T22:44:12.995Z,4.00
2022-07-31T22:46:48.601Z,3.27
2022-07-31T22:49:19.275Z,3.60
2022-07-31T22:51:49.605Z,3.80
2022-07-31T22:54:19.772Z,3.73
2022-07-31T22:56:49.786Z,3.60
2022-07-31T22:59:20.032Z,2.97
2022-07-31T23:01:52.902Z,3.10
2022-07-31T23:04:22.911Z,3.80
2022-07-31T23:06:53.306Z,3.97
2022-07-31T23:09:23.282Z,4.00
2022-07-31T23:11:53.373Z,3.90
2022-07-31T23:14:23.705Z,3.60
2022-07-31T23:16:56.297Z,3.17
2022-07-31T23:19:26.748Z,3.37
2022-07-31T23:21:56.727Z,3.13
2022-07-31T23:24:26.805Z,4.03
2022-07-31T23:26:56.801Z,3.17
2022-07-31T23:29:26.864Z,3.40
2022-07-31T23:31:59.409Z,4.37
2022-07-31T23:34:29.374Z,3.40
2022-07-31T23:36:59.749Z,3.57
2022-07-31T23:39:29.808Z,3.30
2022-07-31T23:42:12.399Z,3.27
2022-07-31T23:44:42.686Z,3.27
2022-07-31T23:47:18.896Z,3.40
2022-07-31T23:49:49.830Z,3.50
2022-07-31T23:52:19.795Z,3.30
2022-07-31T23:54:49.772Z,3.40
2022-07-31T23:57:19.860Z,3.30
2022-07-31T23:59:50.010Z,3.63
